Time;durP1;ratioP1;P1;durP2;ratioP2;P2;SDS_P1;SDS_P2;PMS_P1;PMS_P2;Temp;Humidity;BMP_temperature;BMP_pressure;BME280_temperature;BME280_humidity;BME280_pressure;Samples;Min_cycle;Max_cycle;Signal;HPM_P1;HPM_P2
2023/05/29 00:00:17;;;;;;;6.83;3.90;;;13.10;99.90;;;;;;5061659;28;20192;-89
2023/05/29 00:02:44;;;;;;;5.05;3.50;;;13.00;99.90;;;;;;5037799;28;20444;-89
2023/05/29 00:05:11;;;;;;;6.88;3.35;;;13.00;99.90;;;;;;5054007;28;20187;-89
2023/05/29 00:07:37;;;;;;;5.78;3.38;;;13.00;99.90;;;;;;5043644;28;20629;-89
2023/05/29 00:10:04;;;;;;;5.70;3.37;;;13.00;99.90;;;;;;5030021;28;20229;-88
2023/05/29 00:12:29;;;;;;;8.07;3.67;;;13.00;99.90;;;;;;5024116;28;20466;-88
2023/05/29 00:14:55;;;;;;;5.10;3.90;;;12.90;99.90;;;;;;5035042;28;20181;-89
2023/05/29 00:17:21;;;;;;;8.30;3.00;;;12.90;99.90;;;;;;5039592;28;20693;-89
2023/05/29 00:19:46;;;;;;;5.63;2.85;;;12.90;99.90;;;;;;5051865;28;20211;-88
2023/05/29 00:22:12;;;;;;;7.20;2.93;;;12.80;99.90;;;;;;5054095;28;20177;-89
2023/05/29 00:24:38;;;;;;;7.70;3.13;;;12.80;99.90;;;;;;5033009;28;20677;-89
2023/05/29 00:27:03;;;;;;;5.20;3.00;;;12.80;99.90;;;;;;5048763;28;20242;-88
2023/05/29 00:29:29;;;;;;;8.50;3.70;;;12.70;99.90;;;;;;5051542;28;20231;-87
2023/05/29 00:31:56;;;;;;;4.00;3.03;;;12.60;99.90;;;;;;5033015;28;20466;-89
2023/05/29 00:34:23;;;;;;;5.28;2.70;;;12.60;99.90;;;;;;5051490;28;20196;-87
2023/05/29 00:36:49;;;;;;;4.68;3.50;;;12.70;99.90;;;;;;5053033;28;20177;-88
2023/05/29 00:39:15;;;;;;;6.97;2.83;;;12.60;99.90;;;;;;5050929;28;20211;-87
2023/05/29 00:41:40;;;;;;;7.28;2.60;;;12.60;99.90;;;;;;5051813;28;20184;-87
2023/05/29 00:44:06;;;;;;;5.27;3.07;;;12.50;99.90;;;;;;5054352;28;20187;-87
2023/05/29 00:46:33;;;;;;;12.53;3.47;;;12.30;99.90;;;;;;5073105;28;20192;-88
2023/05/29 00:49:00;;;;;;;4.45;2.75;;;12.30;99.90;;;;;;5051180;28;20213;-87
2023/05/29 00:51:28;;;;;;;7.30;3.10;;;13.30;99.90;;;;;;5056273;28;20219;-87
2023/05/29 00:53:54;;;;;;;9.15;3.05;;;12.30;99.90;;;;;;5042002;28;20177;-89
2023/05/29 00:56:21;;;;;;;7.55;3.10;;;12.20;99.90;;;;;;5058350;28;20681;-88
2023/05/29 00:58:49;;;;;;;4.63;3.05;;;12.10;99.90;;;;;;5053276;28;20219;-87
2023/05/29 01:01:17;;;;;;;6.15;2.88;;;12.10;99.90;;;;;;5055794;28;20245;-88
2023/05/29 01:03:43;;;;;;;6.03;3.22;;;12.20;99.90;;;;;;5057678;28;20204;-87
2023/05/29 01:06:10;;;;;;;4.90;2.78;;;12.20;99.90;;;;;;5057974;28;20534;-88
2023/05/29 01:08:36;;;;;;;6.38;2.92;;;;;;;;;;5060413;28;20576;-87
2023/05/29 01:11:30;;;;;;;3.20;2.73;;;12.10;99.90;;;;;;5072005;28;20245;-87
2023/05/29 01:13:58;;;;;;;6.70;2.60;;;12.00;99.90;;;;;;5055404;28;20439;-88
2023/05/29 01:16:55;;;;;;;6.95;4.15;;;11.90;99.90;;;;;;5038671;28;20289;-88
2023/05/29 01:19:35;;;;;;;4.40;3.78;;;11.90;99.90;;;;;;5030341;28;20289;-88
2023/05/29 01:22:09;;;;;;;4.05;3.15;;;11.80;99.90;;;;;;5056916;28;20180;-88
2023/05/29 01:24:50;;;;;;;3.80;2.40;;;11.80;99.90;;;;;;5036629;28;20189;-89
2023/05/29 01:27:18;;;;;;;4.68;2.67;;;11.80;99.90;;;;;;5055632;28;20268;-89
2023/05/29 01:29:47;;;;;;;6.00;2.80;;;11.80;99.90;;;;;;5051043;28;20197;-89
2023/05/29 01:32:13;;;;;;;5.38;2.25;;;11.70;99.90;;;;;;5053028;28;20173;-87
2023/05/29 01:34:38;;;;;;;5.40;2.83;;;11.70;99.90;;;;;;5053785;28;20181;-88
2023/05/29 01:37:04;;;;;;;3.73;2.17;;;11.80;99.90;;;;;;5037652;28;20207;-87
2023/05/29 01:39:31;;;;;;;3.80;2.67;;;11.90;99.90;;;;;;5053299;28;20212;-88
2023/05/29 01:41:59;;;;;;;9.93;2.95;;;11.90;99.90;;;;;;5038267;28;20527;-88
2023/05/29 01:44:25;;;;;;;6.25;2.45;;;11.80;99.90;;;;;;5037601;28;20189;-88
2023/05/29 01:46:51;;;;;;;5.45;2.75;;;11.80;99.90;;;;;;5055817;28;20579;-86
2023/05/29 01:49:17;;;;;;;4.90;3.27;;;11.70;99.90;;;;;;5034686;28;20216;-88
2023/05/29 01:51:43;;;;;;;7.70;2.90;;;11.80;99.90;;;;;;5018866;28;20204;-88
2023/05/29 01:54:09;;;;;;;5.65;2.95;;;11.80;99.90;;;;;;5055287;28;20752;-88
2023/05/29 01:56:36;;;;;;;8.83;2.63;;;11.70;99.90;;;;;;5040974;28;20177;-87
2023/05/29 01:59:03;;;;;;;4.25;3.25;;;11.60;99.90;;;;;;5052603;28;20855;-88
2023/05/29 02:01:28;;;;;;;6.28;2.65;;;11.60;99.90;;;;;;5053504;28;20231;-88
2023/05/29 02:03:54;;;;;;;9.03;3.30;;;11.60;99.90;;;;;;5053755;28;20760;-88
2023/05/29 02:06:20;;;;;;;3.20;2.57;;;11.60;99.90;;;;;;5035900;28;20177;-89
2023/05/29 02:08:46;;;;;;;4.13;2.42;;;11.60;99.90;;;;;;5049420;28;20769;-88
2023/05/29 02:11:12;;;;;;;6.93;3.10;;;11.60;99.90;;;;;;5034708;28;20207;-89
2023/05/29 02:13:38;;;;;;;6.60;2.77;;;11.50;99.90;;;;;;5052840;28;20271;-88
2023/05/29 02:16:03;;;;;;;4.20;2.60;;;11.50;99.90;;;;;;5052917;28;20187;-88
2023/05/29 02:18:29;;;;;;;4.50;2.70;;;11.40;99.90;;;;;;5035942;28;20514;-88
2023/05/29 02:20:55;;;;;;;5.27;2.70;;;11.40;99.90;;;;;;5038602;28;20178;-88
2023/05/29 02:23:21;;;;;;;6.30;3.10;;;11.40;99.90;;;;;;5053896;28;20611;-87
2023/05/29 02:25:46;;;;;;;7.75;3.72;;;11.40;99.90;;;;;;5037902;28;20288;-88
2023/05/29 02:28:12;;;;;;;4.50;3.07;;;11.40;99.90;;;;;;5035702;28;20303;-87
2023/05/29 02:30:37;;;;;;;3.90;2.53;;;11.30;99.90;;;;;;5035643;28;20277;-88
2023/05/29 02:33:03;;;;;;;5.07;3.13;;;11.20;99.90;;;;;;5036102;28;20703;-88
2023/05/29 02:35:29;;;;;;;9.73;2.50;;;11.10;99.90;;;;;;5039086;28;20177;-88
2023/05/29 02:37:54;;;;;;;6.77;2.70;;;11.00;99.90;;;;;;5061933;28;20186;-88
2023/05/29 02:40:21;;;;;;;4.70;2.73;;;11.00;99.90;;;;;;5063759;28;20197;-88
2023/05/29 02:42:47;;;;;;;3.25;2.35;;;10.90;99.90;;;;;;5073343;28;20237;-87
2023/05/29 02:45:12;;;;;;;7.55;2.55;;;10.90;99.90;;;;;;5055998;28;20632;-86
2023/05/29 02:47:38;;;;;;;5.37;2.90;;;10.90;99.90;;;;;;5051126;28;20250;-86
2023/05/29 02:50:05;;;;;;;3.30;2.47;;;10.90;99.90;;;;;;5036296;28;20200;-87
2023/05/29 02:52:32;;;;;;;5.10;2.53;;;10.80;99.90;;;;;;5054784;28;20185;-86
2023/05/29 02:54:58;;;;;;;6.72;2.63;;;10.80;99.90;;;;;;5052530;28;20223;-87
2023/05/29 02:57:24;;;;;;;4.93;2.40;;;10.70;99.90;;;;;;5029224;28;20755;-87
2023/05/29 02:59:50;;;;;;;4.80;2.53;;;10.70;99.90;;;;;;5035887;28;20189;-87
2023/05/29 03:02:15;;;;;;;8.80;2.50;;;10.80;99.90;;;;;;5040761;28;21259;-86
2023/05/29 03:04:40;;;;;;;3.90;2.20;;;10.70;99.90;;;;;;5052932;28;20178;-86
2023/05/29 03:07:06;;;;;;;9.10;3.03;;;10.70;99.90;;;;;;5042243;28;20173;-86
2023/05/29 03:09:32;;;;;;;4.43;2.30;;;10.70;99.90;;;;;;5053415;28;20209;-86
2023/05/29 03:11:58;;;;;;;2.80;1.87;;;10.60;99.90;;;;;;5054061;28;20185;-86
2023/05/29 03:14:23;;;;;;;6.60;2.53;;;10.60;99.90;;;;;;5053064;28;20680;-85
2023/05/29 03:16:50;;;;;;;10.53;4.73;;;10.60;99.90;;;;;;5054433;28;20663;-88
2023/05/29 03:19:15;;;;;;;3.53;2.78;;;10.60;99.90;;;;;;5050786;28;20211;-89
2023/05/29 03:21:41;;;;;;;6.93;2.50;;;10.50;99.90;;;;;;5039860;28;20252;-88
2023/05/29 03:24:07;;;;;;;3.13;2.40;;;;;;;;;;5053771;28;20217;-88
2023/05/29 03:26:32;;;;;;;5.80;2.90;;;10.40;99.90;;;;;;5048661;28;20189;-88
2023/05/29 03:28:58;;;;;;;6.03;2.70;;;;;;;;;;5051875;28;20471;-87
2023/05/29 03:31:24;;;;;;;9.53;2.30;;;;;;;;;;5052047;28;20203;-88
2023/05/29 03:33:50;;;;;;;4.90;3.80;;;10.50;99.90;;;;;;5052956;28;20887;-88
2023/05/29 03:36:16;;;;;;;5.27;2.70;;;;;;;;;;5052141;28;20908;-88
2023/05/29 03:38:43;;;;;;;6.82;3.08;;;;;;;;;;5053017;28;20377;-88
2023/05/29 03:41:08;;;;;;;4.88;2.80;;;10.60;99.90;;;;;;5051833;28;20215;-88
2023/05/29 03:43:34;;;;;;;3.43;2.43;;;10.70;99.90;;;;;;5035059;28;20193;-88
2023/05/29 03:46:00;;;;;;;4.93;3.30;;;10.80;99.90;;;;;;5052674;28;20849;-88
2023/05/29 03:48:25;;;;;;;3.90;2.37;;;10.90;99.90;;;;;;5053000;28;20205;-88
2023/05/29 03:50:51;;;;;;;5.47;2.80;;;10.70;99.90;;;;;;5050578;28;20196;-88
2023/05/29 03:53:16;;;;;;;6.40;2.63;;;11.00;99.90;;;;;;5052792;28;20192;-88
2023/05/29 03:55:42;;;;;;;6.60;3.30;;;11.10;99.90;;;;;;5049861;28;21086;-88
2023/05/29 03:58:07;;;;;;;6.60;2.47;;;11.20;99.90;;;;;;5054217;28;20189;-88
2023/05/29 04:00:33;;;;;;;4.20;2.30;;;11.20;99.90;;;;;;5039828;28;20207;-88
2023/05/29 04:02:59;;;;;;;3.80;2.43;;;;;;;;;;5053729;28;20203;-88
2023/05/29 04:05:25;;;;;;;4.20;2.75;;;11.30;99.90;;;;;;5047884;28;20193;-88
2023/05/29 04:07:51;;;;;;;7.50;2.53;;;;;;;;;;5052499;28;20208;-88
2023/05/29 04:10:16;;;;;;;4.40;3.05;;;11.50;99.90;;;;;;5034911;28;20613;-88
2023/05/29 04:12:42;;;;;;;4.60;2.50;;;11.40;99.90;;;;;;5070779;28;20165;-88
2023/05/29 04:15:08;;;;;;;5.50;2.47;;;11.50;99.90;;;;;;5061054;28;20713;-88
2023/05/29 04:17:34;;;;;;;5.28;2.42;;;11.80;99.90;;;;;;5037139;28;20265;-88
2023/05/29 04:20:05;;;;;;;6.30;2.40;;;12.70;99.90;;;;;;5032067;28;20236;-88
2023/05/29 04:22:31;;;;;;;5.28;2.75;;;13.90;99.90;;;;;;5052932;28;20897;-87
2023/05/29 04:24:56;;;;;;;4.17;2.93;;;15.50;99.90;;;;;;5044047;28;20181;-88
2023/05/29 04:27:22;;;;;;;6.03;2.33;;;17.10;99.90;;;;;;5052930;28;20212;-88
2023/05/29 04:29:48;;;;;;;4.23;2.80;;;;;;;;;;5040602;28;20247;-87
2023/05/29 04:32:14;;;;;;;4.77;2.33;;;;;;;;;;5039613;28;20235;-87
2023/05/29 04:34:39;;;;;;;4.77;2.80;;;20.50;99.90;;;;;;5049517;28;20439;-89
2023/05/29 04:37:06;;;;;;;4.00;2.27;;;21.60;99.90;;;;;;5033997;28;20441;-89
2023/05/29 04:39:32;;;;;;;4.00;3.37;;;;;;;;;;5049986;28;20329;-85
2023/05/29 04:41:58;;;;;;;3.63;1.93;;;;;;;;;;5051879;28;20827;-87
2023/05/29 04:44:26;;;;;;;2.90;2.20;;;;;;;;;;5047232;28;21001;-89
2023/05/29 04:46:52;;;;;;;4.93;2.23;;;;;;;;;;5050325;28;20431;-88
2023/05/29 04:49:18;;;;;;;3.50;2.40;;;;;;;;;;5048286;28;20481;-88
2023/05/29 04:51:46;;;;;;;5.10;3.67;;;;;;;;;;5051971;28;20431;-89
2023/05/29 04:54:11;;;;;;;4.83;2.83;;;26.00;81.40;;;;;;5035872;28;20531;-88
2023/05/29 04:56:40;;;;;;;2.97;2.20;;;;;;;;;;5030988;28;20534;-87
2023/05/29 04:59:09;;;;;;;3.83;2.83;;;;;;;;;;5049674;28;20327;-87
2023/05/29 05:01:35;;;;;;;8.10;3.23;;;;;;;;;;5051508;28;20472;-85
2023/05/29 05:04:01;;;;;;;5.83;3.23;;;;;;;;;;5048123;28;20435;-86
2023/05/29 05:06:28;;;;;;;6.37;2.93;;;;;;;;;;5050621;28;20435;-87
2023/05/29 05:08:55;;;;;;;8.67;3.70;;;;;;;;;;5050580;28;20458;-87
2023/05/29 05:11:22;;;;;;;6.60;3.47;;;32.70;49.60;;;;;;5030742;28;21282;-87
2023/05/29 05:13:49;;;;;;;3.47;2.80;;;;;;;;;;5033516;28;20844;-88
2023/05/29 05:16:16;;;;;;;9.20;4.90;;;;;;;;;;5060389;28;20435;-86
2023/05/29 05:18:42;;;;;;;4.10;3.70;;;;;;;;;;5071197;28;20439;-86
2023/05/29 05:21:08;;;;;;;5.50;3.80;;;;;;;;;;5055856;28;20534;-88
2023/05/29 05:23:34;;;;;;;3.30;2.90;;;;;;;;;;5051579;28;20479;-87
2023/05/29 05:26:00;;;;;;;5.93;4.00;;;;;;;;;;5057904;28;20422;-87
2023/05/29 05:28:26;;;;;;;7.00;4.70;;;;;;;;;;5044931;28;20465;-87
2023/05/29 05:30:52;;;;;;;4.57;4.17;;;;;;;;;;5054627;28;20519;-87
2023/05/29 05:33:18;;;;;;;5.87;3.83;;;;;;;;;;5033569;28;20460;-87
2023/05/29 05:35:44;;;;;;;5.40;4.40;;;;;;;;;;5051760;28;20440;-88
2023/05/29 05:38:10;;;;;;;6.00;5.60;;;;;;;;;;5050189;28;20494;-88
2023/05/29 05:40:36;;;;;;;6.37;5.77;;;37.60;35.30;;;;;;5038484;28;20433;-87
2023/05/29 05:43:02;;;;;;;6.77;6.20;;;;;;;;;;5059161;28;20447;-86
2023/05/29 05:45:28;;;;;;;5.47;5.07;;;;;;;;;;5057344;28;20444;-87
2023/05/29 05:47:53;;;;;;;7.27;6.10;;;;;;;;;;5036474;28;20459;-86
2023/05/29 05:50:21;;;;;;;6.00;5.53;;;;;;;;;;5048240;28;20429;-88
2023/05/29 05:52:47;;;;;;;7.67;6.80;;;;;;;;;;5051388;28;20424;-87
2023/05/29 05:55:12;;;;;;;7.03;6.60;;;;;;;;;;5051763;28;20433;-86
2023/05/29 05:57:38;;;;;;;7.27;6.57;;;;;;;;;;5050435;28;20516;-87
2023/05/29 06:00:11;;;;;;;10.20;8.50;;;39.70;29.30;;;;;;5056335;28;20513;-88
2023/05/29 06:02:37;;;;;;;6.90;6.30;;;;;;;;;;5032303;28;20271;-87
2023/05/29 06:05:06;;;;;;;6.77;6.37;;;;;;;;;;5049739;28;20510;-88
2023/05/29 06:07:32;;;;;;;9.10;6.60;;;;;;;;;;5051146;28;21114;-89
2023/05/29 06:09:58;;;;;;;7.20;6.70;;;;;;;;;;5050342;28;20450;-88
2023/05/29 06:12:24;;;;;;;7.20;6.60;;;;;;;;;;5043206;28;20982;-89
2023/05/29 06:14:51;;;;;;;9.67;6.83;;;;;;;;;;5052184;28;20788;-88
2023/05/29 06:17:17;;;;;;;7.03;6.50;;;;;;;;;;5043948;28;20419;-89
2023/05/29 06:19:43;;;;;;;7.47;6.77;;;;;;;;;;5050473;28;21182;-88
2023/05/29 06:22:09;;;;;;;10.70;6.17;;;;;;;;;;5024876;28;20478;-88
2023/05/29 06:24:35;;;;;;;7.23;6.53;;;;;;;;;;5054710;28;20460;-88
2023/05/29 06:27:01;;;;;;;7.50;6.77;;;;;;;;;;5054101;28;21030;-88
2023/05/29 06:29:27;;;;;;;7.13;6.53;;;;;;;;;;5053702;28;20507;-88
2023/05/29 06:31:53;;;;;;;6.43;5.80;;;;;;;;;;5042869;28;20443;-88
2023/05/29 06:34:19;;;;;;;5.83;5.43;;;;;;;;;;5049618;28;20422;-85
2023/05/29 06:36:45;;;;;;;6.27;5.77;;;34.00;32.90;;;;;;5033333;28;20441;-88
2023/05/29 06:39:11;;;;;;;6.37;5.50;;;;;;;;;;5053615;28;20946;-87
2023/05/29 06:41:37;;;;;;;5.70;5.20;;;;;;;;;;5036380;28;20184;-88
2023/05/29 06:44:02;;;;;;;8.23;5.80;;;34.20;33.40;;;;;;5057571;28;20432;-87
2023/05/29 06:46:28;;;;;;;6.40;5.50;;;33.10;34.90;;;;;;5044801;28;20997;-88
2023/05/29 06:48:54;;;;;;;5.50;5.10;;;;;;;;;;5050035;28;20209;-87
2023/05/29 06:51:20;;;;;;;6.10;5.17;;;;;;;;;;5049887;28;20182;-86
2023/05/29 06:53:45;;;;;;;5.33;4.93;;;33.90;34.00;;;;;;5031085;28;20490;-87
2023/05/29 06:56:11;;;;;;;5.40;4.90;;;33.60;35.00;;;;;;5040859;28;20462;-87
2023/05/29 06:58:37;;;;;;;6.63;4.87;;;;;;;;;;5052860;28;20209;-87
2023/05/29 07:01:03;;;;;;;5.13;4.67;;;;;;;;;;5038665;28;20186;-87
2023/05/29 07:03:29;;;;;;;5.57;5.07;;;;;;;;;;5051334;28;20467;-86
2023/05/29 07:05:55;;;;;;;5.77;5.17;;;;;;;;;;5051517;28;20555;-88
2023/05/29 07:08:21;;;;;;;6.00;5.20;;;;;;;;;;5052208;28;20682;-88
2023/05/29 07:10:48;;;;;;;6.40;5.90;;;;;;;;;;5049521;28;20435;-88
2023/05/29 07:13:17;;;;;;;7.23;6.60;;;35.50;32.50;;;;;;5060310;28;20434;-86
2023/05/29 07:15:43;;;;;;;6.03;5.53;;;;;;;;;;5061724;28;20416;-87
2023/05/29 07:18:09;;;;;;;8.03;6.93;;;;;;;;;;5033121;28;20420;-89
2023/05/29 07:20:36;;;;;;;7.30;6.80;;;36.20;32.00;;;;;;5042663;28;20447;-88
2023/05/29 07:23:03;;;;;;;7.27;6.70;;;;;;;;;;5050227;28;20437;-88
2023/05/29 07:25:29;;;;;;;7.70;7.00;;;;;;;;;;5053215;28;20457;-87
2023/05/29 07:27:55;;;;;;;7.40;6.90;;;;;;;;;;5051666;28;20482;-87
2023/05/29 07:30:21;;;;;;;6.83;6.33;;;;;;;;;;5050792;28;20409;-87
2023/05/29 07:32:47;;;;;;;7.67;7.03;;;;;;;;;;5039237;28;20478;-88
2023/05/29 07:35:13;;;;;;;9.73;6.40;;;;;;;;;;5045636;28;20907;-87
2023/05/29 07:37:39;;;;;;;7.20;6.60;;;;;;;;;;5034080;28;20442;-88
2023/05/29 07:40:05;;;;;;;6.80;6.20;;;;;;;;;;5044750;28;20485;-87
2023/05/29 07:42:32;;;;;;;7.43;6.80;;;;;;;;;;5050654;28;20533;-87
2023/05/29 07:44:58;;;;;;;7.70;7.20;;;;;;;;;;5031585;28;20432;-88
2023/05/29 07:47:24;;;;;;;6.97;6.57;;;;;;;;;;5048418;28;20929;-88
2023/05/29 07:49:51;;;;;;;7.70;7.20;;;;;;;;;;5029549;28;20525;-87
2023/05/29 07:52:17;;;;;;;8.33;7.70;;;;;;;;;;5048087;28;20487;-88
2023/05/29 07:54:43;;;;;;;7.83;7.23;;;;;;;;;;5053665;28;20442;-86
2023/05/29 07:57:09;;;;;;;7.87;7.03;;;;;;;;;;5071457;28;20493;-87
2023/05/29 07:59:41;;;;;;;7.70;7.13;;;36.50;31.80;;;;;;5060638;28;20445;-87
2023/05/29 08:02:07;;;;;;;8.10;7.50;;;;;;;;;;5048269;28;20456;-86
2023/05/29 08:04:33;;;;;;;8.90;8.10;;;;;;;;;;5064962;28;20432;-87
2023/05/29 08:07:01;;;;;;;9.30;7.07;;;35.80;32.60;;;;;;5055384;28;20442;-88
2023/05/29 08:09:27;;;;;;;7.30;6.70;;;;;;;;;;5053834;28;20477;-88
2023/05/29 08:11:52;;;;;;;7.73;7.20;;;;;;;;;;5045864;28;20423;-88
2023/05/29 08:14:18;;;;;;;7.57;6.97;;;;;;;;;;5051609;28;20418;-88
2023/05/29 08:16:44;;;;;;;11.90;8.53;;;;;;;;;;5053367;28;20439;-87
2023/05/29 08:19:10;;;;;;;7.63;7.13;;;;;;;;;;5037035;28;20644;-87
2023/05/29 08:21:37;;;;;;;9.00;8.30;;;;;;;;;;5051575;28;20418;-88
2023/05/29 08:24:06;;;;;;;9.20;8.30;;;;;;;;;;5051666;28;20444;-88
2023/05/29 08:26:32;;;;;;;8.20;7.60;;;;;;;;;;5048987;28;20516;-87
2023/05/29 08:28:58;;;;;;;8.27;7.60;;;;;;;;;;5048894;28;20577;-87
2023/05/29 08:31:25;;;;;;;7.40;6.77;;;;;;;;;;5045060;28;20803;-87
2023/05/29 08:33:51;;;;;;;7.50;6.90;;;;;;;;;;5049366;28;20429;-87
2023/05/29 08:36:17;;;;;;;8.10;7.50;;;;;;;;;;5049037;28;20439;-87
2023/05/29 08:38:43;;;;;;;6.63;6.03;;;;;;;;;;5047434;28;20434;-88
2023/05/29 08:41:13;;;;;;;10.50;7.17;;;34.50;33.90;;;;;;5044180;28;20496;-88
2023/05/29 08:43:41;;;;;;;7.47;6.87;;;34.40;34.00;;;;;;5027113;28;20446;-87
2023/05/29 08:46:07;;;;;;;7.67;6.97;;;34.40;35.00;;;;;;5027530;28;20492;-88
2023/05/29 08:48:36;;;;;;;7.60;7.10;;;34.90;34.00;;;;;;5040965;28;20569;-88
2023/05/29 08:51:03;;;;;;;8.07;7.23;;;35.70;33.70;;;;;;5044560;28;20438;-87
2023/05/29 08:53:31;;;;;;;10.37;8.23;;;;;;;;;;5047961;28;20982;-87
2023/05/29 08:55:58;;;;;;;7.93;7.30;;;34.00;34.50;;;;;;5027564;28;20461;-87
2023/05/29 08:58:24;;;;;;;8.20;7.30;;;;;;;;;;5047399;28;20501;-87
2023/05/29 09:00:51;;;;;;;9.07;8.27;;;;;;;;;;5040681;28;20466;-87
2023/05/29 09:03:17;;;;;;;7.33;6.73;;;;;;;;;;5047384;28;20943;-88
2023/05/29 09:05:44;;;;;;;7.50;6.90;;;;;;;;;;5046172;28;20933;-88
2023/05/29 09:08:11;;;;;;;7.60;6.90;;;;;;;;;;5043536;28;20488;-88
2023/05/29 09:10:38;;;;;;;6.83;5.63;;;;;;;;;;5045556;28;20435;-86
2023/05/29 09:13:04;;;;;;;5.97;5.57;;;;;;;;;;5050026;28;20432;-88
2023/05/29 09:15:31;;;;;;;6.93;6.43;;;31.90;38.70;;;;;;5048317;28;20483;-89
2023/05/29 09:17:58;;;;;;;7.13;6.70;;;31.70;37.20;;;;;;5049004;28;20447;-90
2023/05/29 09:20:24;;;;;;;7.93;7.10;;;32.50;37.00;;;;;;5026560;28;20442;-88
2023/05/29 09:22:55;;;;;;;8.57;7.67;;;33.30;38.00;;;;;;5049149;28;20526;-89
2023/05/29 09:25:23;;;;;;;7.00;6.30;;;32.60;37.60;;;;;;5030652;28;20521;-88
2023/05/29 09:28:07;;;;;;;7.27;6.63;;;32.90;38.20;;;;;;5049659;28;20447;-89
2023/05/29 09:30:39;;;;;;;8.07;7.50;;;33.00;38.40;;;;;;5034426;28;20442;-89
2023/05/29 09:33:10;;;;;;;7.93;7.33;;;31.80;37.70;;;;;;5050193;28;20991;-89
2023/05/29 09:35:36;;;;;;;7.50;6.80;;;;;;;;;;5047360;28;20440;-88
2023/05/29 09:38:02;;;;;;;6.77;6.07;;;;;;;;;;5031126;28;20435;-89
2023/05/29 09:40:32;;;;;;;6.13;5.60;;;32.60;37.90;;;;;;5051071;28;20490;-89
2023/05/29 09:43:07;;;;;;;6.70;6.10;;;32.70;38.10;;;;;;5033423;28;20476;-89
2023/05/29 09:45:33;;;;;;;6.57;6.07;;;;;;;;;;5049147;28;20436;-89
2023/05/29 09:47:59;;;;;;;7.03;5.87;;;;;;;;;;5036307;28;20556;-88
2023/05/29 09:50:28;;;;;;;6.20;5.40;;;32.40;37.60;;;;;;5047020;28;21231;-89
2023/05/29 09:52:57;;;;;;;6.33;5.73;;;32.60;37.60;;;;;;5048510;28;20487;-89
2023/05/29 09:55:26;;;;;;;8.10;7.30;;;32.40;37.80;;;;;;5044518;28;20491;-89
2023/05/29 09:57:54;;;;;;;7.20;6.50;;;33.10;37.20;;;;;;5050181;28;20531;-89
2023/05/29 10:00:21;;;;;;;7.30;6.63;;;;;;;;;;5051774;28;20416;-89
2023/05/29 10:02:48;;;;;;;6.47;6.03;;;33.00;36.80;;;;;;5052264;28;20431;-88
2023/05/29 10:05:15;;;;;;;6.30;5.80;;;;;;;;;;5028798;28;20531;-88
2023/05/29 10:07:48;;;;;;;5.53;5.03;;;32.60;37.20;;;;;;5031287;28;20434;-88
2023/05/29 10:10:15;;;;;;;5.87;5.47;;;;;;;;;;5029984;28;20472;-88
2023/05/29 10:12:45;;;;;;;5.60;5.10;;;32.20;37.40;;;;;;5053655;28;20432;-88
2023/05/29 10:15:16;;;;;;;8.97;6.60;;;32.10;37.90;;;;;;5070621;28;20423;-89
2023/05/29 10:17:55;;;;;;;6.10;5.70;;;33.00;38.20;;;;;;5060521;28;21029;-89
2023/05/29 10:20:23;;;;;;;5.93;5.40;;;31.20;38.10;;;;;;5037466;28;20437;-88
2023/05/29 10:22:51;;;;;;;6.90;6.20;;;30.50;38.70;;;;;;5054939;28;20442;-87
2023/05/29 10:25:22;;;;;;;5.90;5.13;;;30.50;39.50;;;;;;5052717;28;20431;-89
2023/05/29 10:27:48;;;;;;;4.90;4.47;;;31.00;39.80;;;;;;5054485;28;20519;-88
2023/05/29 10:30:26;;;;;;;6.63;5.70;;;30.90;38.90;;;;;;5067563;28;20451;-89
2023/05/29 10:33:14;;;;;;;5.23;4.60;;;29.20;39.80;;;;;;5051950;28;20553;-88
2023/05/29 10:35:40;;;;;;;6.57;5.37;;;;;;;;;;5056366;28;20436;-87
2023/05/29 10:38:16;;;;;;;4.77;3.70;;;27.10;43.20;;;;;;5077230;28;20434;-89
2023/05/29 10:40:43;;;;;;;5.07;4.50;;;26.80;44.30;;;;;;5046463;28;20453;-89
2023/05/29 10:43:11;;;;;;;7.97;4.80;;;;;;;;;;5039817;28;20435;-89
2023/05/29 10:45:39;;;;;;;4.27;3.73;;;26.40;46.00;;;;;;5053245;28;20530;-87
2023/05/29 10:48:08;;;;;;;6.40;3.90;;;26.00;45.40;;;;;;5050136;28;20552;-88
2023/05/29 10:50:41;;;;;;;4.07;3.67;;;25.90;46.10;;;;;;5050723;28;20420;-88
2023/05/29 10:53:16;;;;;;;5.07;3.50;;;25.50;46.30;;;;;;5052732;28;20437;-88
2023/05/29 10:55:42;;;;;;;3.90;3.40;;;25.40;46.10;;;;;;5051196;28;20450;-88
2023/05/29 10:58:11;;;;;;;6.33;3.90;;;25.10;47.60;;;;;;5050286;28;20436;-88
2023/05/29 11:00:45;;;;;;;4.97;4.00;;;26.30;48.90;;;;;;5052301;28;20431;-87
2023/05/29 11:03:12;;;;;;;5.20;2.83;;;;;;;;;;5052962;28;20404;-88
2023/05/29 11:06:10;;;;;;;5.27;3.23;;;25.10;46.40;;;;;;5051295;28;20522;-87
2023/05/29 11:08:47;;;;;;;4.70;3.60;;;25.00;45.60;;;;;;5051813;28;20563;-89
2023/05/29 11:11:13;;;;;;;5.87;3.20;;;24.70;45.20;;;;;;5052858;28;20407;-86
2023/05/29 11:13:44;;;;;;;7.87;3.50;;;24.80;48.10;;;;;;5031736;28;20474;-88
2023/05/29 11:16:18;;;;;;;6.33;4.27;;;26.00;47.50;;;;;;5052581;28;20492;-88
2023/05/29 11:18:46;;;;;;;3.73;3.23;;;24.90;45.30;;;;;;5054816;28;20466;-88
2023/05/29 11:21:42;;;;;;;6.27;3.80;;;24.90;46.40;;;;;;5051025;28;20428;-87
2023/05/29 11:24:22;;;;;;;6.37;4.30;;;24.80;46.30;;;;;;5053101;28;20887;-88
2023/05/29 11:26:48;;;;;;;4.37;3.80;;;25.10;45.80;;;;;;5054163;28;20887;-88
2023/05/29 11:29:14;;;;;;;5.00;3.63;;;25.30;46.90;;;;;;5051668;28;20462;-88
2023/05/29 11:31:40;;;;;;;4.47;3.60;;;26.30;44.60;;;;;;5054038;28;20209;-88
2023/05/29 11:34:13;;;;;;;3.20;2.90;;;25.30;43.90;;;;;;5034927;28;20520;-88
2023/05/29 11:36:39;;;;;;;3.73;3.43;;;25.50;47.10;;;;;;5055185;28;20424;-88
2023/05/29 11:39:05;;;;;;;8.30;3.80;;;25.50;44.10;;;;;;5027955;28;20459;-87
2023/05/29 11:41:31;;;;;;;5.07;3.60;;;25.80;44.00;;;;;;5039782;28;20193;-89
2023/05/29 11:44:02;;;;;;;5.50;3.73;;;25.70;42.40;;;;;;5042302;28;20420;-89
2023/05/29 11:46:30;;;;;;;8.50;4.17;;;;;;;;;;5051294;28;20205;-89
2023/05/29 11:48:56;;;;;;;3.20;2.80;;;;;;;;;;5053410;28;20976;-89
2023/05/29 11:51:22;;;;;;;4.90;3.80;;;25.40;42.80;;;;;;5048157;28;20435;-87
2023/05/29 11:53:49;;;;;;;4.00;3.57;;;25.30;43.80;;;;;;5048877;28;20466;-89
2023/05/29 11:56:15;;;;;;;9.83;4.37;;;;;;;;;;5050555;28;20209;-89
2023/05/29 11:58:41;;;;;;;5.93;4.10;;;25.30;38.50;;;;;;5053292;28;20428;-89
2023/05/29 12:01:10;;;;;;;4.70;4.00;;;25.30;39.20;;;;;;5031854;28;20805;-89
2023/05/29 12:03:40;;;;;;;5.33;3.70;;;25.30;39.50;;;;;;5046027;28;20458;-89
2023/05/29 12:06:06;;;;;;;4.70;4.20;;;25.50;40.80;;;;;;5047922;28;20429;-89
2023/05/29 12:08:32;;;;;;;4.00;3.40;;;;;;;;;;5051352;28;20543;-89
2023/05/29 12:10:58;;;;;;;4.50;3.30;;;;;;;;;;5050623;28;20447;-88
2023/05/29 12:13:24;;;;;;;4.20;3.70;;;;;;;;;;5034437;28;20428;-89
2023/05/29 12:15:54;;;;;;;5.20;3.50;;;25.70;40.60;;;;;;5048844;28;20440;-90
2023/05/29 12:18:20;;;;;;;4.83;3.73;;;;;;;;;;5049301;28;20971;-89
2023/05/29 12:20:45;;;;;;;4.07;3.63;;;25.70;40.20;;;;;;5047286;28;20436;-89
2023/05/29 12:23:12;;;;;;;4.47;4.07;;;25.70;40.50;;;;;;5027996;28;21004;-89
2023/05/29 12:25:38;;;;;;;4.00;3.60;;;;;;;;;;5047642;28;21079;-89
2023/05/29 12:28:04;;;;;;;3.20;2.90;;;25.80;40.00;;;;;;5051380;28;20524;-89
2023/05/29 12:30:30;;;;;;;3.93;3.63;;;;;;;;;;5044423;28;20444;-90
2023/05/29 12:32:56;;;;;;;3.80;3.40;;;;;;;;;;5060148;28;20454;-89
2023/05/29 12:35:24;;;;;;;5.97;3.80;;;25.80;40.50;;;;;;5049789;28;20502;-90
2023/05/29 12:37:58;;;;;;;4.90;3.83;;;26.50;41.50;;;;;;5054346;28;20440;-89
2023/05/29 12:40:24;;;;;;;3.70;3.10;;;;;;;;;;5049625;28;20495;-90
2023/05/29 12:42:55;;;;;;;4.70;3.60;;;25.80;41.10;;;;;;5042895;28;20424;-90
2023/05/29 12:45:29;;;;;;;3.37;3.07;;;25.50;40.50;;;;;;5049168;28;20434;-88
2023/05/29 12:48:02;;;;;;;6.67;4.97;;;25.40;40.20;;;;;;5053773;28;20424;-90
2023/05/29 12:50:32;;;;;;;6.33;3.50;;;25.50;40.80;;;;;;5048595;28;20447;-89
2023/05/29 12:53:02;;;;;;;3.00;2.67;;;25.50;39.80;;;;;;5051638;28;20441;-89
2023/05/29 12:55:30;;;;;;;4.90;3.33;;;25.80;42.20;;;;;;5022422;28;20443;-90
2023/05/29 12:57:56;;;;;;;4.83;3.40;;;25.80;42.80;;;;;;5054633;28;20437;-89
2023/05/29 13:00:22;;;;;;;6.97;3.50;;;25.80;39.60;;;;;;5038292;28;20483;-89
2023/05/29 13:02:49;;;;;;;5.20;4.30;;;25.80;40.10;;;;;;5036036;28;20436;-90
2023/05/29 13:05:15;;;;;;;4.10;3.60;;;26.50;42.10;;;;;;5053800;28;20467;-88
2023/05/29 13:07:42;;;;;;;3.80;3.50;;;25.80;42.60;;;;;;5055365;28;20417;-89
2023/05/29 13:10:08;;;;;;;3.60;3.30;;;25.80;43.10;;;;;;5057041;28;21080;-89
2023/05/29 13:12:35;;;;;;;3.83;2.50;;;25.60;42.90;;;;;;5053813;28;20777;-89
2023/05/29 13:15:00;;;;;;;3.13;2.93;;;;;;;;;;5041082;28;20458;-90
2023/05/29 13:17:26;;;;;;;5.17;2.90;;;25.80;43.90;;;;;;5076349;28;20408;-88
2023/05/29 13:19:52;;;;;;;3.60;3.03;;;27.40;45.50;;;;;;5070786;28;20452;-89
2023/05/29 13:22:17;;;;;;;4.13;3.00;;;;;;;;;;5044429;28;20215;-89
2023/05/29 13:24:43;;;;;;;4.27;3.57;;;;;;;;;;5045534;28;20232;-90
2023/05/29 13:27:09;;;;;;;4.73;3.30;;;;;;;;;;5055729;28;20511;-89
2023/05/29 13:29:35;;;;;;;4.40;3.17;;;;;;;;;;5050232;28;20477;-89